createdAt,value
2023-02-11T00:01:22.226Z,81.95
2023-02-11T00:03:51.935Z,81.51
2023-02-11T00:06:20.329Z,82.59
2023-02-11T00:08:48.839Z,82.42
2023-02-11T00:11:18.687Z,82.31
2023-02-11T00:13:47.632Z,82.86
2023-02-11T00:16:17.476Z,82.34
2023-02-11T00:18:45.827Z,81.64
2023-02-11T00:21:17.663Z,82.56
2023-02-11T00:23:46.503Z,82.60
2023-02-11T00:26:15.056Z,83.10
2023-02-11T00:28:43.753Z,82.41
2023-02-11T00:31:12.224Z,82.51
2023-02-11T00:33:40.656Z,82.77
2023-02-11T00:36:11.016Z,82.63
2023-02-11T00:38:40.796Z,82.29
2023-02-11T00:41:09.101Z,82.16
2023-02-11T00:43:37.448Z,82.53
2023-02-11T00:46:06.160Z,82.73
2023-02-11T00:48:34.505Z,82.63
2023-02-11T00:51:04.310Z,83.50
2023-02-11T00:53:32.807Z,83.57
2023-02-11T00:56:02.745Z,83.13
2023-02-11T00:58:31.600Z,84.01
2023-02-11T01:01:00.096Z,83.94
2023-02-11T01:03:28.484Z,83.25
2023-02-11T01:05:57.334Z,83.48
2023-02-11T01:08:25.601Z,83.81
2023-02-11T01:10:58.334Z,82.84
2023-02-11T01:13:28.993Z,83.89
2023-02-11T01:15:57.978Z,83.28
2023-02-11T01:18:26.860Z,83.57
2023-02-11T01:20:55.771Z,83.88
2023-02-11T01:23:24.052Z,83.99
2023-02-11T01:25:52.928Z,83.40
2023-02-11T01:28:23.101Z,83.72
2023-02-11T01:30:53.173Z,83.82
2023-02-11T01:33:22.205Z,83.78
2023-02-11T01:35:51.189Z,83.39
2023-02-11T01:38:21.046Z,83.52
2023-02-11T01:40:50.502Z,83.82
2023-02-11T01:43:19.076Z,83.48
2023-02-11T01:46:00.690Z,83.83
2023-02-11T01:48:31.604Z,83.02
2023-02-11T01:51:04.772Z,83.88
2023-02-11T01:53:51.418Z,83.68
2023-02-11T01:56:34.413Z,83.50
2023-02-11T01:59:08.384Z,83.65
2023-02-11T02:01:39.619Z,83.60
2023-02-11T02:04:08.743Z,83.92
2023-02-11T02:06:39.793Z,84.15
2023-02-11T02:09:10.402Z,84.01
2023-02-11T02:11:38.867Z,83.55
2023-02-11T02:14:07.363Z,83.85
2023-02-11T02:16:38.024Z,84.10
2023-02-11T02:19:28.147Z,84.37
2023-02-11T02:22:14.443Z,83.90
2023-02-11T02:25:01.198Z,83.34
2023-02-11T02:27:43.176Z,83.29
2023-02-11T02:31:15.105Z,83.56
2023-02-11T02:33:48.824Z,83.93
2023-02-11T02:36:20.325Z,83.80
2023-02-11T02:38:52.356Z,84.31
2023-02-11T02:41:21.724Z,83.69
2023-02-11T02:43:51.065Z,84.23
2023-02-11T02:46:21.526Z,83.85
2023-02-11T02:48:52.874Z,83.64
2023-02-11T02:51:37.659Z,84.33
2023-02-11T02:54:31.442Z,83.45
2023-02-11T02:57:01.959Z,83.17
2023-02-11T02:59:39.474Z,83.44
2023-02-11T03:02:14.158Z,83.37
2023-02-11T03:04:50.455Z,82.80
2023-02-11T03:07:23.666Z,82.88
2023-02-11T03:09:56.407Z,83.13
2023-02-11T03:12:26.194Z,82.17
2023-02-11T03:14:54.478Z,83.07
2023-02-11T03:17:23.564Z,82.53
2023-02-11T03:19:53.358Z,82.04
2023-02-11T03:22:24.420Z,82.10
2023-02-11T03:24:52.943Z,81.94
2023-02-11T03:27:27.128Z,81.68
2023-02-11T03:29:58.926Z,81.68
2023-02-11T03:32:31.039Z,82.40
2023-02-11T03:35:02.425Z,81.75
2023-02-11T03:37:34.353Z,81.46
2023-02-11T03:40:05.614Z,81.13
2023-02-11T03:42:37.442Z,81.90
2023-02-11T03:45:08.156Z,81.46
2023-02-11T03:47:39.382Z,80.63
2023-02-11T03:50:11.673Z,81.09
2023-02-11T03:52:40.364Z,81.19
2023-02-11T03:55:11.562Z,80.80
2023-02-11T03:57:40.170Z,81.11
2023-02-11T04:00:10.386Z,80.67
2023-02-11T04:02:40.235Z,80.89
2023-02-11T04:05:12.001Z,80.52
2023-02-11T04:07:40.440Z,80.44
2023-02-11T04:10:09.417Z,80.58
2023-02-11T04:12:37.648Z,80.91
2023-02-11T04:15:06.602Z,80.54
2023-02-11T04:17:34.949Z,80.81
2023-02-11T04:20:03.299Z,81.13
2023-02-11T04:22:33.746Z,80.51
2023-02-11T04:25:01.971Z,80.96
2023-02-11T04:27:31.443Z,80.76
2023-02-11T04:29:59.833Z,80.58
2023-02-11T04:32:28.064Z,80.64
2023-02-11T04:34:56.896Z,80.70
2023-02-11T04:37:25.359Z,80.96
2023-02-11T04:39:55.068Z,80.20
2023-02-11T04:42:23.336Z,79.75
2023-02-11T04:44:51.963Z,80.15
2023-02-11T04:47:20.505Z,80.34
2023-02-11T04:49:48.817Z,80.28
2023-02-11T04:52:17.247Z,80.82
2023-02-11T04:54:45.519Z,80.47
2023-02-11T04:57:15.173Z,80.14
2023-02-11T04:59:43.761Z,80.55
2023-02-11T05:02:12.038Z,80.30
2023-02-11T05:04:40.319Z,80.73
2023-02-11T05:07:09.297Z,80.38
2023-02-11T05:09:37.591Z,80.69
2023-02-11T05:12:08.911Z,81.11
2023-02-11T05:14:38.761Z,81.30
2023-02-11T05:17:07.013Z,81.30
2023-02-11T05:19:35.456Z,80.93
2023-02-11T05:22:03.943Z,80.65
2023-02-11T05:24:32.793Z,80.82
2023-02-11T05:27:01.359Z,81.28
2023-02-11T05:29:30.244Z,81.03
2023-02-11T05:32:00.428Z,81.40
2023-02-11T05:34:28.694Z,81.02
2023-02-11T05:36:57.242Z,81.56
2023-02-11T05:39:26.110Z,81.43
2023-02-11T05:41:54.904Z,82.19
2023-02-11T05:44:23.268Z,81.13
2023-02-11T05:46:51.536Z,81.49
2023-02-11T05:49:21.408Z,80.82
2023-02-11T05:51:49.828Z,80.73
2023-02-11T05:54:18.291Z,80.54
2023-02-11T05:56:46.497Z,80.93
2023-02-11T05:59:15.941Z,80.76
2023-02-11T06:01:44.338Z,80.73
2023-02-11T06:04:12.651Z,80.62
2023-02-11T06:06:42.434Z,80.11
2023-02-11T06:09:11.592Z,80.85
2023-02-11T06:11:40.489Z,81.09
2023-02-11T06:14:10.106Z,81.39
2023-02-11T06:16:38.371Z,80.96
2023-02-11T06:19:06.661Z,81.50
2023-02-11T06:21:43.232Z,80.76
2023-02-11T06:24:14.091Z,80.64
2023-02-11T06:26:42.660Z,80.57
2023-02-11T06:29:10.930Z,79.36
2023-02-11T06:31:40.006Z,79.74
2023-02-11T06:34:08.644Z,80.65
2023-02-11T06:36:37.284Z,80.01
2023-02-11T06:39:05.895Z,82.75
2023-02-11T06:41:35.652Z,80.97
2023-02-11T06:44:04.152Z,81.38
2023-02-11T06:46:32.961Z,80.32
2023-02-11T06:49:01.322Z,81.31
2023-02-11T06:51:29.640Z,80.45
2023-02-11T06:53:57.900Z,80.88
2023-02-11T06:56:27.650Z,84.64
2023-02-11T06:58:58.053Z,83.15
2023-02-11T07:01:27.845Z,81.34
2023-02-11T07:03:56.408Z,80.79
2023-02-11T07:06:28.178Z,82.51
2023-02-11T07:08:56.934Z,80.17
2023-02-11T07:11:26.802Z,79.20
2023-02-11T07:13:58.493Z,78.86
2023-02-11T07:16:27.713Z,78.41
2023-02-11T07:18:56.415Z,78.06
2023-02-11T07:21:25.151Z,79.33
2023-02-11T07:23:53.772Z,76.97
2023-02-11T07:26:23.581Z,76.23
2023-02-11T07:28:52.393Z,75.72
2023-02-11T07:31:23.821Z,82.36
2023-02-11T07:33:53.929Z,76.99
2023-02-11T07:36:22.557Z,76.59
2023-02-11T07:38:51.199Z,75.62
2023-02-11T07:41:21.494Z,75.67
2023-02-11T07:43:49.956Z,75.11
2023-02-11T07:46:22.370Z,74.93
2023-02-11T07:48:51.468Z,77.67
2023-02-11T07:51:22.033Z,74.61
2023-02-11T07:53:50.704Z,73.73
2023-02-11T07:56:19.935Z,77.29
2023-02-11T07:58:48.326Z,73.91
2023-02-11T08:01:19.834Z,72.66
2023-02-11T08:03:49.840Z,72.40
2023-02-11T08:06:20.448Z,75.03
2023-02-11T08:08:49.182Z,73.70
2023-02-11T08:11:18.698Z,72.64
2023-02-11T08:13:47.220Z,72.43
2023-02-11T08:16:19.794Z,72.26
2023-02-11T08:18:50.004Z,72.10
2023-02-11T08:21:19.213Z,72.82
2023-02-11T08:23:48.040Z,73.21
2023-02-11T08:26:18.272Z,72.21
2023-02-11T08:28:48.066Z,72.10
2023-02-11T08:31:18.089Z,66.91
2023-02-11T08:33:46.935Z,65.58
2023-02-11T08:36:18.295Z,66.25
2023-02-11T08:38:46.788Z,68.06
2023-02-11T08:41:15.824Z,69.19
2023-02-11T08:43:44.960Z,68.20
2023-02-11T08:46:17.513Z,67.96
2023-02-11T08:48:46.419Z,72.27
2023-02-11T08:51:18.340Z,100.00
2023-02-11T08:53:47.750Z,100.00
2023-02-11T08:56:17.910Z,100.00
2023-02-11T08:58:46.226Z,100.00
2023-02-11T09:01:16.039Z,100.00
2023-02-11T09:03:44.507Z,100.00
2023-02-11T09:06:13.964Z,100.00
2023-02-11T09:08:46.525Z,100.00
2023-02-11T09:11:15.046Z,100.00
2023-02-11T09:13:44.224Z,100.00
2023-02-11T09:16:19.221Z,100.00
2023-02-11T09:18:48.008Z,100.00
2023-02-11T09:21:18.077Z,100.00
2023-02-11T09:23:48.446Z,100.00
2023-02-11T09:26:19.123Z,100.00
2023-02-11T09:28:47.994Z,100.00
2023-02-11T09:31:18.636Z,100.00
2023-02-11T09:33:49.070Z,100.00
2023-02-11T09:36:19.152Z,100.00
2023-02-11T09:38:50.297Z,100.00
2023-02-11T09:41:36.665Z,100.00
2023-02-11T09:44:07.414Z,100.00
2023-02-11T09:46:41.759Z,100.00
2023-02-11T09:49:18.628Z,100.00
2023-02-11T09:51:49.613Z,100.00
2023-02-11T09:54:30.088Z,100.00
2023-02-11T09:56:58.941Z,100.00
2023-02-11T09:59:27.211Z,100.00
2023-02-11T10:01:59.349Z,100.00
2023-02-11T10:04:41.766Z,100.00
2023-02-11T10:07:18.963Z,100.00
2023-02-11T10:10:09.103Z,100.00
2023-02-11T10:12:52.705Z,100.00
2023-02-11T10:15:23.215Z,100.00
2023-02-11T10:18:02.998Z,100.00
2023-02-11T10:20:34.313Z,100.00
2023-02-11T10:23:06.852Z,100.00
2023-02-11T10:25:39.913Z,100.00
2023-02-11T10:28:15.227Z,100.00
2023-02-11T10:30:46.689Z,100.00
2023-02-11T10:33:18.457Z,100.00
2023-02-11T10:35:48.624Z,100.00
2023-02-11T10:38:16.980Z,100.00
2023-02-11T10:40:46.764Z,100.00
2023-02-11T10:43:16.568Z,100.00
2023-02-11T10:45:46.918Z,100.00
2023-02-11T10:48:43.275Z,100.00
2023-02-11T10:51:23.608Z,100.00
2023-02-11T10:54:14.501Z,100.00
2023-02-11T10:56:47.619Z,100.00
2023-02-11T10:59:21.494Z,100.00
2023-02-11T11:01:52.173Z,100.00
2023-02-11T11:04:36.659Z,100.00
2023-02-11T11:07:14.854Z,100.00
2023-02-11T11:09:49.395Z,100.00
2023-02-11T11:12:35.230Z,100.00
2023-02-11T11:15:16.666Z,100.00
2023-02-11T11:17:45.079Z,100.00
2023-02-11T11:20:21.955Z,100.00
2023-02-11T11:22:52.093Z,100.00
2023-02-11T11:25:28.114Z,100.00
2023-02-11T11:28:00.967Z,100.00
2023-02-11T11:30:34.595Z,100.00
2023-02-11T11:33:05.094Z,100.00
2023-02-11T11:35:34.306Z,100.00
2023-02-11T11:38:05.469Z,100.00
2023-02-11T11:40:34.735Z,100.00
2023-02-11T11:43:22.661Z,100.00
2023-02-11T11:45:56.620Z,100.00
2023-02-11T11:48:28.456Z,100.00
2023-02-11T11:50:58.648Z,100.00
2023-02-11T11:53:30.871Z,100.00
2023-02-11T11:56:04.164Z,100.00
2023-02-11T11:58:34.514Z,100.00
2023-02-11T12:01:14.815Z,100.00
2023-02-11T12:04:02.917Z,100.00
2023-02-11T12:06:39.179Z,100.00
2023-02-11T12:09:18.033Z,100.00
2023-02-11T12:12:01.393Z,100.00
2023-02-11T12:14:42.855Z,100.00
2023-02-11T12:17:18.980Z,100.00
2023-02-11T12:20:04.245Z,100.00
2023-02-11T12:22:39.855Z,100.00
2023-02-11T12:25:23.149Z,100.00
2023-02-11T12:27:58.589Z,100.00
2023-02-11T12:30:40.818Z,100.00
2023-02-11T12:33:15.904Z,100.00
2023-02-11T12:35:49.749Z,100.00
2023-02-11T12:38:55.733Z,100.00
2023-02-11T12:42:06.788Z,100.00
2023-02-11T12:44:40.532Z,100.00
2023-02-11T12:47:18.799Z,100.00
2023-02-11T12:49:55.020Z,100.00
2023-02-11T12:52:41.244Z,100.00
2023-02-11T12:55:13.346Z,100.00
2023-02-11T12:57:43.352Z,100.00
2023-02-11T13:00:16.384Z,100.00
2023-02-11T13:02:51.302Z,100.00
2023-02-11T13:05:25.425Z,100.00
2023-02-11T13:07:57.267Z,100.00
2023-02-11T13:10:29.254Z,100.00
2023-02-11T13:13:15.990Z,100.00
2023-02-11T13:15:45.455Z,100.00
2023-02-11T13:18:22.180Z,100.00
2023-02-11T13:20:55.112Z,100.00
2023-02-11T13:23:27.558Z,100.00
2023-02-11T13:25:58.412Z,100.00
2023-02-11T13:28:42.854Z,100.00
2023-02-11T13:31:13.227Z,100.00
2023-02-11T13:33:44.664Z,100.00
2023-02-11T13:36:19.680Z,100.00
2023-02-11T13:39:00.419Z,100.00
2023-02-11T13:41:38.292Z,100.00
2023-02-11T13:44:28.194Z,100.00
2023-02-11T13:47:02.367Z,100.00
2023-02-11T13:49:38.517Z,100.00
2023-02-11T13:52:17.032Z,100.00
2023-02-11T13:54:50.046Z,100.00
2023-02-11T13:57:42.334Z,100.00
2023-02-11T14:00:50.511Z,100.00
2023-02-11T14:03:51.100Z,100.00
2023-02-11T14:06:44.620Z,100.00
2023-02-11T14:09:35.654Z,100.00
2023-02-11T14:12:32.543Z,100.00
2023-02-11T14:15:05.397Z,100.00
2023-02-11T14:17:35.587Z,100.00
2023-02-11T14:20:05.841Z,100.00
2023-02-11T14:22:47.094Z,100.00
2023-02-11T14:25:22.232Z,100.00
2023-02-11T14:27:55.525Z,100.00
2023-02-11T14:30:47.458Z,100.00
2023-02-11T14:33:52.384Z,100.00
2023-02-11T14:36:39.827Z,100.00
2023-02-11T14:39:19.559Z,100.00
2023-02-11T14:41:48.907Z,100.00
2023-02-11T14:44:20.074Z,100.00
2023-02-11T14:46:50.258Z,100.00
2023-02-11T14:49:25.299Z,100.00
2023-02-11T14:51:55.568Z,100.00
2023-02-11T14:54:26.823Z,100.00
2023-02-11T14:57:09.975Z,100.00
2023-02-11T14:59:38.566Z,100.00
2023-02-11T15:02:21.936Z,100.00
2023-02-11T15:04:50.332Z,100.00
2023-02-11T15:07:20.069Z,100.00
2023-02-11T15:09:51.371Z,100.00
2023-02-11T15:12:23.817Z,100.00
2023-02-11T15:14:53.779Z,100.00
2023-02-11T15:17:25.345Z,100.00
2023-02-11T15:19:55.884Z,100.00
2023-02-11T15:22:27.771Z,100.00
2023-02-11T15:25:05.249Z,100.00
2023-02-11T15:27:40.314Z,100.00
2023-02-11T15:30:25.514Z,100.00
2023-02-11T15:32:58.916Z,100.00
2023-02-11T15:35:29.045Z,100.00
2023-02-11T15:37:58.912Z,100.00
2023-02-11T15:40:32.490Z,100.00
2023-02-11T15:43:02.829Z,100.00
2023-02-11T15:45:32.659Z,100.00
2023-02-11T15:48:07.260Z,100.00
2023-02-11T15:50:37.445Z,100.00
2023-02-11T15:53:16.361Z,100.00
2023-02-11T15:55:48.698Z,100.00
2023-02-11T15:58:17.265Z,100.00
2023-02-11T16:00:50.017Z,100.00
2023-02-11T16:03:22.383Z,100.00
2023-02-11T16:05:51.011Z,100.00
2023-02-11T16:08:25.596Z,100.00
2023-02-11T16:11:03.347Z,100.00
2023-02-11T16:13:34.050Z,100.00
2023-02-11T16:16:05.062Z,100.00
2023-02-11T16:18:39.991Z,100.00
2023-02-11T16:21:16.175Z,100.00
2023-02-11T16:23:45.240Z,100.00
2023-02-11T16:26:23.403Z,100.00
2023-02-11T16:28:51.882Z,100.00
2023-02-11T16:31:20.537Z,100.00
2023-02-11T16:33:48.967Z,100.00
2023-02-11T16:36:18.454Z,100.00
2023-02-11T16:38:47.500Z,100.00
2023-02-11T16:41:17.340Z,100.00
2023-02-11T16:43:45.848Z,100.00
2023-02-11T16:46:16.542Z,100.00
2023-02-11T16:48:45.187Z,100.00
2023-02-11T16:51:13.720Z,72.27
2023-02-11T16:53:42.065Z,91.15
2023-02-11T16:56:18.045Z,91.30
2023-02-11T16:58:46.989Z,91.60
2023-02-11T17:01:15.553Z,92.31
2023-02-11T17:03:43.994Z,92.50
2023-02-11T17:06:13.674Z,92.42
2023-02-11T17:08:42.263Z,92.37
2023-02-11T17:11:11.352Z,92.56
2023-02-11T17:13:42.303Z,92.48
2023-02-11T17:16:17.699Z,92.77
2023-02-11T17:18:46.399Z,94.11
2023-02-11T17:21:15.190Z,94.55
2023-02-11T17:23:43.879Z,94.33
2023-02-11T17:26:12.157Z,94.46
2023-02-11T17:28:41.873Z,94.70
2023-02-11T17:31:10.731Z,95.14
2023-02-11T17:33:39.162Z,95.63
2023-02-11T17:36:08.826Z,95.76
2023-02-11T17:38:38.397Z,95.43
2023-02-11T17:41:07.163Z,95.76
2023-02-11T17:43:36.466Z,95.35
2023-02-11T17:46:09.381Z,95.52
2023-02-11T17:48:39.132Z,95.47
2023-02-11T17:51:08.913Z,95.02
2023-02-11T17:53:37.337Z,96.49
2023-02-11T17:56:07.406Z,96.33
2023-02-11T17:58:35.927Z,95.48
2023-02-11T18:01:04.400Z,96.19
2023-02-11T18:03:34.288Z,96.41
2023-02-11T18:06:03.535Z,97.03
2023-02-11T18:08:31.912Z,96.45
2023-02-11T18:11:00.396Z,96.62
2023-02-11T18:13:29.833Z,96.75
2023-02-11T18:16:03.954Z,96.10
2023-02-11T18:18:33.841Z,97.15
2023-02-11T18:21:04.230Z,96.38
2023-02-11T18:23:32.637Z,96.55
2023-02-11T18:26:01.029Z,96.83
2023-02-11T18:28:29.676Z,96.62
2023-02-11T18:30:59.053Z,97.41
2023-02-11T18:33:28.414Z,97.34
2023-02-11T18:35:58.433Z,97.88
2023-02-11T18:38:27.012Z,97.92
2023-02-11T18:40:58.919Z,97.78
2023-02-11T18:43:31.645Z,98.00
2023-02-11T18:46:00.434Z,98.25
2023-02-11T18:48:29.431Z,98.97
2023-02-11T18:50:59.273Z,99.40
2023-02-11T18:53:27.785Z,98.54
2023-02-11T18:55:56.089Z,99.35
2023-02-11T18:58:24.327Z,98.84
2023-02-11T19:00:52.733Z,99.19
2023-02-11T19:03:21.313Z,99.58
2023-02-11T19:05:51.254Z,99.86
2023-02-11T19:08:21.408Z,100.00
2023-02-11T19:10:50.163Z,99.89
2023-02-11T19:13:18.519Z,100.00
2023-02-11T19:15:47.908Z,99.75
2023-02-11T19:18:17.594Z,100.00
2023-02-11T19:20:46.448Z,99.83
2023-02-11T19:23:15.139Z,100.00
2023-02-11T19:25:48.588Z,99.66
2023-02-11T19:28:17.394Z,99.38
2023-02-11T19:30:45.984Z,99.95
2023-02-11T19:33:14.597Z,100.00
2023-02-11T19:35:43.799Z,100.00
2023-02-11T19:38:13.823Z,100.00
2023-02-11T19:40:42.293Z,100.00
2023-02-11T19:43:13.239Z,100.00
2023-02-11T19:45:41.832Z,100.00
2023-02-11T19:48:15.514Z,100.00
2023-02-11T19:50:44.720Z,100.00
2023-02-11T19:53:13.324Z,100.00
2023-02-11T19:55:43.665Z,100.00
2023-02-11T19:58:13.810Z,100.00
2023-02-11T20:00:42.542Z,100.00
2023-02-11T20:03:11.122Z,100.00
2023-02-11T20:05:43.651Z,100.00
2023-02-11T20:08:11.940Z,100.00
2023-02-11T20:10:40.271Z,100.00
2023-02-11T20:13:08.670Z,100.00
2023-02-11T20:15:38.429Z,100.00
2023-02-11T20:18:07.029Z,100.00
2023-02-11T20:20:35.620Z,100.00
2023-02-11T20:23:04.184Z,100.00
2023-02-11T20:25:32.541Z,100.00
2023-02-11T20:28:00.923Z,100.00
2023-02-11T20:30:29.348Z,100.00
2023-02-11T20:32:59.020Z,100.00
2023-02-11T20:35:27.505Z,100.00
2023-02-11T20:37:55.867Z,100.00
2023-02-11T20:40:24.189Z,100.00
2023-02-11T20:42:53.481Z,100.00
2023-02-11T20:45:21.786Z,100.00
2023-02-11T20:47:50.151Z,100.00
2023-02-11T20:50:20.218Z,100.00
2023-02-11T20:52:48.618Z,100.00
2023-02-11T20:55:17.684Z,100.00
2023-02-11T20:57:46.761Z,100.00
2023-02-11T21:00:15.586Z,100.00
2023-02-11T21:02:44.157Z,100.00
2023-02-11T21:05:12.731Z,100.00
2023-02-11T21:07:42.387Z,100.00
2023-02-11T21:10:11.174Z,100.00
2023-02-11T21:12:41.134Z,100.00
2023-02-11T21:15:11.335Z,100.00
2023-02-11T21:17:39.611Z,100.00
2023-02-11T21:20:09.363Z,100.00
2023-02-11T21:22:37.655Z,100.00
2023-02-11T21:25:08.721Z,100.00
2023-02-11T21:27:37.817Z,100.00
2023-02-11T21:30:07.672Z,100.00
2023-02-11T21:32:35.953Z,100.00
2023-02-11T21:35:04.314Z,100.00
2023-02-11T21:37:33.148Z,100.00
2023-02-11T21:40:01.436Z,100.00
2023-02-11T21:42:32.791Z,100.00
2023-02-11T21:45:01.079Z,100.00
2023-02-11T21:47:29.870Z,100.00
2023-02-11T21:49:58.238Z,100.00
2023-02-11T21:52:26.569Z,100.00
2023-02-11T21:54:54.824Z,100.00
2023-02-11T21:57:23.425Z,100.00
2023-02-11T21:59:53.275Z,100.00
2023-02-11T22:02:21.933Z,100.00
2023-02-11T22:04:50.382Z,100.00
2023-02-11T22:07:20.651Z,100.00
2023-02-11T22:09:48.956Z,100.00
2023-02-11T22:12:17.358Z,100.00
2023-02-11T22:14:46.427Z,100.00
2023-02-11T22:17:16.171Z,100.00
2023-02-11T22:19:44.566Z,100.00
2023-02-11T22:22:13.612Z,100.00
2023-02-11T22:24:41.971Z,100.00
2023-02-11T22:27:10.354Z,100.00
2023-02-11T22:29:38.740Z,100.00
2023-02-11T22:32:07.586Z,100.00
2023-02-11T22:34:37.796Z,100.00
2023-02-11T22:37:06.586Z,100.00
2023-02-11T22:39:36.437Z,100.00
2023-02-11T22:42:04.952Z,100.00
2023-02-11T22:44:33.299Z,100.00
2023-02-11T22:47:01.672Z,100.00
2023-02-11T22:49:32.643Z,100.00
2023-02-11T22:52:02.295Z,100.00
2023-02-11T22:54:31.537Z,100.00
2023-02-11T22:56:59.942Z,100.00
2023-02-11T22:59:28.382Z,100.00
2023-02-11T23:01:56.897Z,100.00
2023-02-11T23:04:25.844Z,100.00
2023-02-11T23:06:54.592Z,100.00
2023-02-11T23:09:24.246Z,100.00
2023-02-11T23:11:54.554Z,100.00
2023-02-11T23:14:23.004Z,100.00
2023-02-11T23:16:52.051Z,100.00
2023-02-11T23:19:20.455Z,100.00
2023-02-11T23:21:52.246Z,100.00
2023-02-11T23:24:20.656Z,100.00
2023-02-11T23:26:50.367Z,100.00
2023-02-11T23:29:18.656Z,100.00
2023-02-11T23:31:47.170Z,100.00
2023-02-11T23:34:17.377Z,100.00
2023-02-11T23:36:46.284Z,100.00
2023-02-11T23:39:15.824Z,100.00
2023-02-11T23:41:44.063Z,100.00
2023-02-11T23:44:13.837Z,100.00
2023-02-11T23:46:42.267Z,100.00
2023-02-11T23:49:10.546Z,100.00
2023-02-11T23:51:38.888Z,100.00
2023-02-11T23:54:07.271Z,100.00
2023-02-11T23:56:37.011Z,100.00
2023-02-11T23:59:05.411Z,100.00
